Portada
METAR-TAF:

METAR-TAF

Aeroports :

Nawabshah, Pakistan

latitud: 26-15N, longitud: 068-22E, altitud: 37 m

Observació

L'informe es va fer fa 52 minuts, a les 23:00 UTC
Vent calma
Temperatura 19°C
Humitat 83%
Pressió 1014 hPa
Visibilitat: 1500 m
fum

METAR: OPNH 272300Z 00000KT 1500 FU NSC 19/16 Q1014 TEMPO 1000M FU

Hora: 04:52 (23:52 UTC)

Pronòstic

L'informe es va fer fa 2 hores i 22 minuts, a les 21:30 UTC
Pronòstic vàlid del 28 a les 00 UTC al 28 a les 09 UTC
Vent 10 kt del Sud
Visibilitat: 5000 m
calitja
Temporalment
l' 28 a les 00 UTC al 28 a les 04 UTC
Vent kt del Nord
Visibilitat: 2000 m
fum

TAF: OPNH 272130Z 2800/2809 18010KT 5000 HZ NSC TEMPO 2800/2804 00000KT 2000 FU NSC

Observacions i pronòstics meteorològics de més de 4000 aeroports (METAR i TAF).

Les estacions disponibles són els punts grocs i vermells al mapa.

Posi el ratolí al punt desitjat per veure el nom de l'estació.

Feu clic per veure les observacions i els pronòstics meteorològics.

Per canviar el mapa: feu clic els botons verds amb una creu de color negre per apropar; al botó verd amb un guió per allunyar la imatge; o en les fletxes verdes per a mapes adjacents.


METAR-TAF: